createdAt,value
2018-07-19T00:02:00.482Z,5.37
2018-07-19T00:04:29.020Z,6.83
2018-07-19T00:06:57.582Z,12.70
2018-07-19T00:09:26.122Z,5.77
2018-07-19T00:11:54.709Z,4.90
2018-07-19T00:14:23.256Z,8.53
2018-07-19T00:16:51.817Z,5.33
2018-07-19T00:19:20.376Z,6.27
2018-07-19T00:21:48.938Z,6.20
2018-07-19T00:24:17.545Z,7.33
2018-07-19T00:26:46.099Z,6.03
2018-07-19T00:29:14.642Z,7.43
2018-07-19T00:31:43.238Z,6.27
2018-07-19T00:34:11.785Z,7.60
2018-07-19T00:36:40.373Z,10.00
2018-07-19T00:39:09.347Z,5.87
2018-07-19T00:41:39.583Z,7.03
2018-07-19T00:44:08.845Z,8.07
2018-07-19T00:46:37.396Z,6.33
2018-07-19T00:49:06.463Z,7.83
2018-07-19T00:51:35.033Z,8.07
2018-07-19T00:54:03.565Z,7.60
2018-07-19T00:56:32.099Z,7.30
2018-07-19T00:59:01.374Z,7.13
2018-07-19T01:01:29.971Z,8.47
2018-07-19T01:03:59.314Z,9.90
2018-07-19T01:06:27.818Z,8.20
2018-07-19T01:08:56.399Z,7.30
2018-07-19T01:11:24.954Z,7.70
2018-07-19T01:13:53.592Z,10.90
2018-07-19T01:16:22.157Z,16.60
2018-07-19T01:18:50.674Z,8.07
2018-07-19T01:21:19.207Z,8.20
2018-07-19T01:23:47.792Z,8.60
2018-07-19T01:26:16.311Z,9.13
2018-07-19T01:28:44.823Z,8.30
2018-07-19T01:31:13.395Z,11.00
2018-07-19T01:33:41.908Z,15.43
2018-07-19T01:36:10.415Z,10.00
2018-07-19T01:38:39.612Z,8.50
2018-07-19T01:42:16.786Z,9.53
2018-07-19T01:44:45.400Z,16.90
2018-07-19T01:47:14.042Z,15.67
2018-07-19T01:49:44.625Z,18.77
2018-07-19T01:52:13.746Z,15.37
2018-07-19T01:54:42.445Z,13.23
2018-07-19T01:57:12.220Z,11.43
2018-07-19T01:59:41.752Z,14.77
2018-07-19T02:02:10.411Z,12.30
2018-07-19T02:04:38.934Z,12.30
2018-07-19T02:07:07.841Z,14.33
2018-07-19T02:09:36.433Z,9.43
2018-07-19T02:12:04.992Z,12.33
2018-07-19T02:14:33.560Z,9.20
2018-07-19T02:17:02.579Z,15.20
2018-07-19T02:19:31.091Z,11.90
2018-07-19T02:22:00.580Z,9.97
2018-07-19T02:24:29.156Z,9.83
2018-07-19T02:26:57.764Z,10.90
2018-07-19T02:29:26.416Z,19.02
2018-07-19T02:31:54.949Z,13.07
2018-07-19T02:34:23.491Z,20.70
2018-07-19T02:36:52.045Z,11.28
2018-07-19T02:39:20.614Z,13.23
2018-07-19T02:41:49.197Z,13.33
2018-07-19T02:44:17.787Z,12.00
2018-07-19T02:46:46.320Z,13.67
2018-07-19T02:49:14.910Z,11.63
2018-07-19T02:51:44.058Z,12.37
2018-07-19T02:54:13.046Z,13.23
2018-07-19T02:56:41.556Z,10.78
2018-07-19T02:59:10.152Z,20.57
2018-07-19T03:01:38.673Z,11.20
2018-07-19T03:04:07.394Z,12.93
2018-07-19T03:06:35.988Z,13.25
2018-07-19T03:09:06.081Z,24.15
2018-07-19T03:11:34.957Z,17.87
2018-07-19T03:14:03.576Z,20.82
2018-07-19T03:16:32.119Z,14.15
2018-07-19T03:19:00.681Z,12.47
2018-07-19T03:21:29.415Z,10.93
2018-07-19T03:23:57.941Z,12.00
2018-07-19T03:26:26.701Z,12.40
2018-07-19T03:28:55.258Z,15.15
2018-07-19T03:31:23.788Z,14.28
2018-07-19T03:33:52.330Z,14.43
2018-07-19T03:36:20.924Z,14.33
2018-07-19T03:38:49.447Z,13.78
2018-07-19T03:41:18.021Z,13.78
2018-07-19T03:43:46.580Z,17.32
2018-07-19T03:46:15.134Z,15.80
2018-07-19T03:48:43.684Z,14.85
2018-07-19T03:51:12.345Z,19.50
2018-07-19T03:53:40.984Z,16.52
2018-07-19T03:56:09.553Z,17.20
2018-07-19T03:58:38.124Z,21.45
2018-07-19T04:01:06.954Z,28.55
2018-07-19T04:03:35.473Z,36.83
2018-07-19T04:06:04.106Z,146.53
2018-07-19T04:08:32.659Z,162.30
2018-07-19T04:11:01.193Z,145.23
2018-07-19T04:13:29.771Z,104.03
2018-07-19T04:15:58.305Z,81.45
2018-07-19T04:18:26.821Z,57.13
2018-07-19T04:20:55.376Z,50.90
2018-07-19T04:23:23.916Z,48.28
2018-07-19T04:25:52.443Z,37.33
2018-07-19T04:28:21.034Z,31.15
2018-07-19T04:30:49.557Z,32.35
2018-07-19T04:33:18.115Z,25.70
2018-07-19T04:35:46.666Z,30.63
2018-07-19T04:38:15.294Z,25.48
2018-07-19T04:40:43.852Z,21.07
2018-07-19T04:43:12.422Z,21.40
2018-07-19T04:45:40.971Z,22.22
2018-07-19T04:48:09.533Z,23.00
2018-07-19T04:50:38.069Z,29.13
2018-07-19T04:53:06.592Z,24.45
2018-07-19T04:55:35.131Z,21.90
2018-07-19T04:58:03.744Z,27.13
2018-07-19T05:00:32.262Z,19.73
2018-07-19T05:03:00.815Z,19.33
2018-07-19T05:05:29.421Z,18.30
2018-07-19T05:07:57.978Z,19.27
2018-07-19T05:10:26.534Z,18.60
2018-07-19T05:12:55.246Z,17.30
2018-07-19T05:15:23.761Z,16.03
2018-07-19T05:17:52.309Z,14.33
2018-07-19T05:20:20.912Z,16.13
2018-07-19T05:22:49.120Z,14.03
2018-07-19T05:25:17.641Z,14.80
2018-07-19T05:27:46.197Z,18.13
2018-07-19T05:30:14.743Z,12.80
2018-07-19T05:32:43.286Z,11.50
2018-07-19T05:35:11.861Z,12.47
2018-07-19T05:37:40.384Z,12.17
2018-07-19T05:40:08.943Z,13.33
2018-07-19T05:42:37.512Z,19.80
2018-07-19T05:45:06.083Z,9.10
2018-07-19T05:47:34.683Z,12.63
2018-07-19T05:50:03.414Z,9.20
2018-07-19T05:52:32.061Z,10.90
2018-07-19T05:55:00.585Z,14.10
2018-07-19T05:57:29.136Z,8.90
2018-07-19T05:59:57.686Z,11.17
2018-07-19T06:02:26.267Z,10.23
2018-07-19T06:04:54.834Z,9.40
2018-07-19T06:07:23.458Z,16.27
2018-07-19T06:09:51.992Z,10.80
2018-07-19T06:12:20.692Z,19.90
2018-07-19T06:14:49.228Z,15.60
2018-07-19T06:17:17.762Z,16.57
2018-07-19T06:19:46.321Z,12.67
2018-07-19T06:22:14.860Z,11.77
2018-07-19T06:24:43.465Z,13.60
2018-07-19T06:27:12.055Z,11.47
2018-07-19T06:29:40.587Z,11.20
2018-07-19T06:32:09.158Z,15.93
2018-07-19T06:34:37.762Z,12.03
2018-07-19T06:37:06.741Z,12.80
2018-07-19T06:39:35.284Z,12.43
2018-07-19T06:42:04.028Z,10.97
2018-07-19T06:44:32.929Z,16.70
2018-07-19T06:47:01.493Z,11.83
2018-07-19T06:49:30.272Z,12.83
2018-07-19T06:51:59.435Z,12.20
2018-07-19T06:54:28.312Z,14.77
2018-07-19T06:56:56.886Z,11.03
2018-07-19T06:59:25.441Z,9.73
2018-07-19T07:01:54.073Z,9.50
2018-07-19T07:04:22.684Z,14.90
2018-07-19T07:06:51.959Z,9.87
2018-07-19T07:09:20.611Z,10.97
2018-07-19T07:11:49.222Z,10.30
2018-07-19T07:14:17.789Z,10.40
2018-07-19T07:16:46.336Z,8.87
2018-07-19T07:19:14.927Z,9.20
2018-07-19T07:21:43.500Z,8.70
2018-07-19T07:24:12.098Z,10.87
2018-07-19T07:26:40.745Z,19.73
2018-07-19T07:29:09.353Z,9.73
2018-07-19T07:31:37.952Z,15.67
2018-07-19T07:34:07.120Z,10.63
2018-07-19T07:36:35.677Z,10.20
2018-07-19T07:39:06.153Z,11.70
2018-07-19T07:41:34.763Z,10.03
2018-07-19T07:44:04.174Z,9.83
2018-07-19T07:46:32.645Z,11.30
2018-07-19T07:49:01.408Z,9.80
2018-07-19T07:51:30.021Z,9.73
2018-07-19T07:53:58.597Z,11.20
2018-07-19T07:56:27.149Z,10.40
2018-07-19T07:58:55.682Z,11.90
2018-07-19T08:01:24.228Z,9.67
2018-07-19T08:03:53.219Z,9.53
2018-07-19T08:06:21.769Z,7.80
2018-07-19T08:08:51.236Z,7.80
2018-07-19T08:11:20.042Z,8.90
2018-07-19T08:13:48.610Z,18.67
2018-07-19T08:16:17.168Z,13.97
2018-07-19T08:18:45.776Z,9.67
2018-07-19T08:21:14.535Z,18.27
2018-07-19T08:23:43.078Z,10.30
2018-07-19T08:26:11.665Z,7.10
2018-07-19T08:28:40.226Z,7.63
2018-07-19T08:31:08.772Z,5.80
2018-07-19T08:33:37.321Z,9.40
2018-07-19T08:36:05.965Z,10.03
2018-07-19T08:38:34.509Z,7.23
2018-07-19T08:41:03.081Z,10.53
2018-07-19T08:43:31.728Z,11.40
2018-07-19T08:46:00.280Z,6.03
2018-07-19T08:48:29.025Z,6.03
2018-07-19T08:50:57.566Z,4.60
2018-07-19T08:53:26.184Z,6.50
2018-07-19T08:55:54.741Z,5.47
2018-07-19T08:58:23.269Z,7.50
2018-07-19T09:00:53.369Z,4.23
2018-07-19T09:03:22.502Z,7.53
2018-07-19T09:05:50.744Z,2.87
2018-07-19T09:08:19.272Z,3.33
2018-07-19T09:10:47.838Z,3.30
2018-07-19T09:13:16.385Z,8.00
2018-07-19T09:15:44.962Z,4.10
2018-07-19T09:18:14.281Z,4.20
2018-07-19T09:20:42.873Z,3.37
2018-07-19T09:23:11.543Z,3.80
2018-07-19T09:25:41.004Z,3.27
2018-07-19T09:28:09.542Z,6.20
2018-07-19T09:30:38.653Z,6.80
2018-07-19T09:33:07.633Z,5.07
2018-07-19T09:35:37.072Z,3.70
2018-07-19T09:38:06.116Z,3.50
2018-07-19T09:40:34.835Z,5.83
2018-07-19T09:43:03.830Z,5.80
2018-07-19T09:45:32.656Z,2.70
2018-07-19T09:48:01.264Z,7.90
2018-07-19T09:50:29.943Z,3.00
2018-07-19T09:52:58.630Z,10.83
2018-07-19T09:55:27.194Z,4.80
2018-07-19T09:57:55.788Z,5.60
2018-07-19T10:00:29.644Z,5.40
2018-07-19T10:02:58.935Z,3.50
2018-07-19T10:05:27.831Z,5.13
2018-07-19T10:07:56.232Z,3.63
2018-07-19T10:10:24.985Z,5.10
2018-07-19T10:12:53.967Z,4.30
2018-07-19T10:15:23.088Z,4.40
2018-07-19T10:17:53.277Z,3.97
2018-07-19T10:20:21.849Z,4.30
2018-07-19T10:22:50.487Z,4.27
2018-07-19T10:25:19.141Z,4.50
2018-07-19T10:27:47.740Z,3.50
2018-07-19T10:30:16.521Z,3.90
2018-07-19T10:32:45.252Z,4.23
2018-07-19T10:35:14.013Z,3.57
2018-07-19T10:37:42.694Z,4.87
2018-07-19T10:40:12.160Z,4.93
2018-07-19T10:42:40.786Z,4.00
2018-07-19T10:45:09.486Z,5.10
2018-07-19T10:47:38.130Z,5.20
2018-07-19T10:50:06.921Z,4.87
2018-07-19T10:52:36.185Z,7.17
2018-07-19T10:55:05.939Z,2.73
2018-07-19T10:57:35.066Z,3.17
2018-07-19T11:00:04.087Z,5.30
2018-07-19T11:02:33.449Z,2.00
2018-07-19T11:05:02.855Z,3.17
2018-07-19T11:07:31.978Z,2.20
2018-07-19T11:10:01.079Z,2.90
2018-07-19T11:12:30.351Z,2.23
2018-07-19T11:14:59.473Z,2.60
2018-07-19T11:17:28.586Z,1.50
2018-07-19T11:19:57.435Z,4.57
2018-07-19T11:22:26.430Z,2.80
2018-07-19T11:24:55.417Z,1.90
2018-07-19T11:27:24.887Z,3.37
2018-07-19T11:29:54.224Z,3.10
2018-07-19T11:32:23.589Z,7.63
2018-07-19T11:34:53.034Z,6.17
2018-07-19T11:37:21.881Z,2.70
2018-07-19T11:39:50.876Z,4.17
2018-07-19T11:42:19.659Z,2.53
2018-07-19T11:44:48.500Z,2.50
2018-07-19T11:47:18.195Z,2.90
2018-07-19T11:49:47.220Z,15.30
2018-07-19T11:52:15.959Z,10.63
2018-07-19T11:54:44.895Z,8.33
2018-07-19T11:57:13.460Z,3.47
2018-07-19T11:59:42.122Z,4.20
2018-07-19T12:02:11.091Z,2.77
2018-07-19T12:04:40.520Z,7.23
2018-07-19T12:07:09.192Z,3.00
2018-07-19T12:09:38.754Z,2.50
2018-07-19T12:12:07.594Z,2.30
2018-07-19T12:14:36.390Z,2.73
2018-07-19T12:17:05.089Z,3.23
2018-07-19T12:19:33.825Z,4.93
2018-07-19T12:22:02.636Z,2.63
2018-07-19T12:24:31.497Z,1.83
2018-07-19T12:27:01.159Z,2.33
2018-07-19T13:26:54.547Z,7.57
2018-07-19T13:29:23.097Z,3.40
2018-07-19T13:31:51.662Z,2.40
2018-07-19T13:34:20.216Z,5.73
2018-07-19T13:36:48.803Z,2.30
2018-07-19T13:39:17.309Z,1.80
2018-07-19T13:41:48.852Z,2.90
2018-07-19T13:44:17.418Z,1.07
2018-07-19T13:46:46.051Z,2.50
2018-07-19T13:49:15.361Z,1.37
2018-07-19T13:51:44.112Z,1.43
2018-07-19T13:54:46.756Z,2.37
2018-07-19T13:57:15.714Z,4.23
2018-07-19T13:59:44.641Z,1.90
2018-07-19T14:02:14.191Z,2.13
2018-07-19T14:04:43.029Z,2.10
2018-07-19T14:07:11.807Z,5.57
2018-07-19T14:09:40.677Z,3.40
2018-07-19T14:12:09.414Z,3.23
2018-07-19T14:14:38.238Z,6.90
2018-07-19T14:17:07.274Z,2.63
2018-07-19T14:19:36.081Z,8.50
2018-07-19T14:22:04.885Z,4.53
2018-07-19T14:24:33.674Z,2.13
2018-07-19T14:27:02.480Z,2.10
2018-07-19T14:29:31.362Z,3.37
2018-07-19T14:32:00.196Z,2.53
2018-07-19T14:34:29.031Z,5.37
2018-07-19T14:36:57.922Z,5.43
2018-07-19T14:39:26.784Z,2.90
2018-07-19T14:41:55.534Z,4.33
2018-07-19T14:44:24.328Z,2.30
2018-07-19T14:46:53.183Z,6.20
2018-07-19T14:49:21.943Z,5.40
2018-07-19T14:51:50.636Z,1.67
2018-07-19T14:54:19.352Z,2.30
2018-07-19T14:56:48.260Z,3.17
2018-07-19T14:59:17.139Z,3.87
2018-07-19T15:01:46.561Z,4.43
2018-07-19T15:04:15.444Z,4.07
2018-07-19T15:06:45.420Z,2.60
2018-07-19T15:09:14.368Z,3.73
2018-07-19T15:11:43.995Z,5.07
2018-07-19T15:14:14.067Z,2.07
2018-07-19T15:16:43.081Z,4.93
2018-07-19T15:19:12.155Z,2.03
2018-07-19T15:21:40.884Z,2.13
2018-07-19T15:24:09.576Z,1.53
2018-07-19T15:26:38.223Z,2.13
2018-07-19T15:29:06.912Z,3.13
2018-07-19T15:31:35.646Z,2.53
2018-07-19T15:34:04.338Z,2.67
2018-07-19T15:36:33.147Z,3.30
2018-07-19T15:39:01.839Z,2.70
2018-07-19T15:41:30.752Z,2.03
2018-07-19T15:43:59.426Z,1.83
2018-07-19T15:46:28.214Z,1.97
2018-07-19T15:48:57.115Z,5.80
2018-07-19T15:51:25.805Z,2.93
2018-07-19T15:53:54.515Z,7.63
2018-07-19T15:56:23.224Z,2.50
2018-07-19T15:58:52.063Z,2.50
2018-07-19T16:01:20.822Z,4.00
2018-07-19T16:03:49.502Z,2.60
2018-07-19T16:06:18.276Z,3.63
2018-07-19T16:08:47.118Z,2.83
2018-07-19T16:11:15.805Z,2.13
2018-07-19T16:13:44.699Z,2.90
2018-07-19T16:16:13.503Z,4.40
2018-07-19T16:18:42.280Z,3.00
2018-07-19T16:21:11.086Z,3.17
2018-07-19T16:23:40.194Z,6.47
2018-07-19T16:26:09.270Z,2.50
2018-07-19T16:28:38.201Z,3.10
2018-07-19T16:31:07.091Z,6.93
2018-07-19T16:33:36.353Z,3.23
2018-07-19T16:36:05.532Z,2.43
2018-07-19T16:38:35.481Z,2.93
2018-07-19T16:41:04.572Z,2.77
2018-07-19T16:43:33.657Z,4.37
2018-07-19T16:46:03.538Z,4.37
2018-07-19T16:48:32.771Z,4.70
2018-07-19T16:51:02.060Z,3.27
2018-07-19T16:53:30.926Z,3.03
2018-07-19T16:55:59.742Z,2.53
2018-07-19T16:58:29.401Z,2.87
2018-07-19T17:00:58.208Z,4.17
2018-07-19T17:03:27.396Z,3.43
2018-07-19T17:05:55.942Z,4.50
2018-07-19T17:08:24.504Z,3.07
2018-07-19T17:10:53.004Z,3.50
2018-07-19T17:13:21.522Z,3.00
2018-07-19T17:15:50.089Z,5.20
2018-07-19T17:18:18.736Z,4.93
2018-07-19T17:20:47.255Z,5.30
2018-07-19T17:23:15.998Z,4.17
2018-07-19T17:25:44.481Z,3.07
2018-07-19T17:28:13.027Z,2.80
2018-07-19T17:30:41.602Z,3.50
2018-07-19T17:33:10.183Z,5.10
2018-07-19T17:35:38.690Z,2.70
2018-07-19T17:38:07.270Z,3.83
2018-07-19T17:40:35.844Z,4.73
2018-07-19T17:43:04.616Z,9.00
2018-07-19T17:45:33.179Z,6.87
2018-07-19T17:48:01.689Z,8.57
2018-07-19T17:50:30.191Z,3.97
2018-07-19T17:53:02.469Z,3.67
2018-07-19T17:55:30.995Z,3.37
2018-07-19T17:57:59.507Z,3.03
2018-07-19T18:00:28.025Z,3.30
2018-07-19T18:02:56.734Z,13.20
2018-07-19T18:05:25.287Z,4.40
2018-07-19T18:07:54.550Z,4.03
2018-07-19T18:10:23.410Z,3.30
2018-07-19T18:12:51.947Z,5.53
2018-07-19T18:15:20.858Z,4.67
2018-07-19T18:17:49.388Z,6.03
2018-07-19T18:20:17.949Z,8.73
2018-07-19T18:22:46.847Z,6.63
2018-07-19T18:25:15.386Z,9.40
2018-07-19T18:27:43.898Z,14.60
2018-07-19T18:30:13.351Z,4.00
2018-07-19T18:32:41.903Z,4.87
2018-07-19T18:35:10.443Z,4.13
2018-07-19T18:37:39.084Z,3.40
2018-07-19T18:40:07.746Z,4.73
2018-07-19T18:42:36.292Z,11.73
2018-07-19T18:45:04.977Z,3.37
2018-07-19T18:47:33.489Z,6.43
2018-07-19T18:50:02.027Z,4.33
2018-07-19T18:52:30.675Z,22.37
2018-07-19T18:54:59.213Z,3.90
2018-07-19T18:57:27.843Z,11.27
2018-07-19T18:59:56.400Z,9.57
2018-07-19T19:02:24.929Z,8.73
2018-07-19T19:04:53.507Z,9.97
2018-07-19T19:07:22.180Z,6.60
2018-07-19T19:09:50.730Z,4.80
2018-07-19T19:12:19.259Z,4.70
2018-07-19T19:14:47.788Z,10.57
2018-07-19T19:17:16.926Z,9.70
2018-07-19T19:19:45.473Z,8.70
2018-07-19T19:22:14.033Z,4.63
2018-07-19T19:24:42.561Z,8.33
2018-07-19T19:27:11.283Z,14.93
2018-07-19T19:29:39.819Z,10.57
2018-07-19T19:32:08.366Z,8.00
2018-07-19T19:34:36.855Z,6.30
2018-07-19T19:37:05.480Z,12.63
2018-07-19T19:39:34.024Z,5.33
2018-07-19T19:42:02.819Z,4.03
2018-07-19T19:44:31.371Z,7.73
2018-07-19T19:46:59.940Z,3.60
2018-07-19T19:49:28.427Z,4.37
2018-07-19T19:51:56.932Z,3.20
2018-07-19T19:54:25.683Z,3.10
2018-07-19T19:56:54.184Z,3.73
2018-07-19T19:59:22.967Z,2.00
2018-07-19T20:01:51.555Z,2.60
2018-07-19T20:04:20.072Z,2.23
2018-07-19T20:06:48.714Z,5.90
2018-07-19T20:09:17.250Z,4.13
2018-07-19T20:11:47.317Z,7.27
2018-07-19T20:14:16.563Z,5.13
2018-07-19T20:16:45.089Z,1.53
2018-07-19T20:19:13.762Z,4.20
2018-07-19T20:21:42.475Z,3.67
2018-07-19T20:24:12.613Z,3.43
2018-07-19T20:26:41.480Z,1.40
2018-07-19T20:29:10.364Z,3.23
2018-07-19T20:31:38.965Z,10.27
2018-07-19T20:34:08.218Z,3.13
2018-07-19T20:36:36.783Z,3.27
2018-07-19T20:39:07.650Z,1.27
2018-07-19T20:41:36.697Z,3.90
2018-07-19T20:44:05.275Z,3.33
2018-07-19T20:46:34.565Z,4.17
2018-07-19T20:49:03.267Z,2.83
2018-07-19T20:51:32.050Z,9.10
2018-07-19T20:54:00.602Z,2.53
2018-07-19T20:56:29.142Z,3.07
2018-07-19T20:58:58.096Z,2.53
2018-07-19T21:01:28.224Z,4.40
2018-07-19T21:03:56.758Z,1.80
2018-07-19T21:06:25.312Z,4.67
2018-07-19T21:08:53.833Z,3.57
2018-07-19T21:11:22.489Z,6.33
2018-07-19T21:13:51.153Z,5.30
2018-07-19T21:16:19.930Z,1.40
2018-07-19T21:18:48.461Z,2.00
2018-07-19T21:21:17.068Z,2.70
2018-07-19T21:23:45.602Z,8.60
2018-07-19T21:26:14.153Z,2.60
2018-07-19T21:28:42.722Z,1.73
2018-07-19T21:31:11.365Z,5.03
2018-07-19T21:33:40.204Z,1.50
2018-07-19T21:36:08.779Z,3.37
2018-07-19T21:38:37.601Z,1.43
2018-07-19T21:41:06.921Z,3.80
2018-07-19T21:43:35.451Z,3.20
2018-07-19T21:46:04.050Z,2.20
2018-07-19T21:48:32.604Z,5.00
2018-07-19T21:51:01.729Z,1.77
2018-07-19T21:53:30.295Z,1.57
2018-07-19T21:55:59.214Z,1.67
2018-07-19T21:58:27.799Z,2.80
2018-07-19T22:01:01.656Z,3.50
2018-07-19T22:03:30.435Z,10.60
2018-07-19T22:05:58.989Z,2.10
2018-07-19T22:08:28.920Z,3.07
2018-07-19T22:10:57.470Z,3.67
2018-07-19T22:13:26.042Z,2.13
2018-07-19T22:15:54.620Z,2.33
2018-07-19T22:18:23.777Z,3.60
2018-07-19T22:20:52.858Z,4.10
2018-07-19T22:23:21.455Z,3.80
2018-07-19T22:25:50.255Z,2.40
2018-07-19T22:28:19.675Z,3.17
2018-07-19T22:30:48.827Z,3.50
2018-07-19T22:33:17.421Z,1.90
2018-07-19T22:35:46.474Z,2.30
2018-07-19T22:38:14.969Z,2.93
2018-07-19T22:40:43.529Z,3.27
2018-07-19T22:43:12.480Z,3.23
2018-07-19T22:45:41.001Z,2.40
2018-07-19T22:48:09.868Z,4.03
2018-07-19T22:50:38.410Z,3.40
2018-07-19T22:53:06.974Z,12.93
2018-07-19T22:55:35.582Z,4.13
2018-07-19T22:58:04.218Z,3.57
2018-07-19T23:00:32.873Z,3.20
2018-07-19T23:03:01.554Z,3.63
2018-07-19T23:05:30.103Z,2.63
2018-07-19T23:07:58.730Z,5.60
2018-07-19T23:10:27.293Z,4.40
2018-07-19T23:12:55.833Z,4.27
2018-07-19T23:15:24.386Z,9.83
2018-07-19T23:17:52.937Z,4.03
2018-07-19T23:20:21.502Z,10.33
2018-07-19T23:22:55.916Z,4.60
2018-07-19T23:25:24.474Z,4.77
2018-07-19T23:27:53.393Z,4.47
2018-07-19T23:30:23.755Z,4.00
2018-07-19T23:32:52.346Z,4.83
2018-07-19T23:35:22.266Z,4.30
2018-07-19T23:37:52.596Z,5.43
2018-07-19T23:40:24.301Z,4.23
2018-07-19T23:43:26.985Z,11.77
2018-07-19T23:46:06.815Z,4.10
2018-07-19T23:48:35.451Z,7.53
2018-07-19T23:51:03.975Z,5.03
2018-07-19T23:53:32.517Z,5.30
2018-07-19T23:56:01.107Z,5.63
2018-07-19T23:58:29.643Z,8.33
